sensor_id;sensor_type;location;lat;lon;timestamp;pressure;altitude;pressure_sealevel;temperature
71640;BMP280;60912;48.968;10.124;2023-01-30T00:00:22;97145.19;;;-1.23
71640;BMP280;60912;48.968;10.124;2023-01-30T00:02:47;97133.44;;;-1.29
71640;BMP280;60912;48.968;10.124;2023-01-30T00:05:13;97135.25;;;-1.26
71640;BMP280;60912;48.968;10.124;2023-01-30T00:07:38;97120.25;;;-1.27
71640;BMP280;60912;48.968;10.124;2023-01-30T00:10:04;97115.44;;;-1.23
71640;BMP280;60912;48.968;10.124;2023-01-30T00:12:29;97111.84;;;-1.20
71640;BMP280;60912;48.968;10.124;2023-01-30T00:14:54;97106.75;;;-1.18
71640;BMP280;60912;48.968;10.124;2023-01-30T00:17:20;97095.19;;;-1.18
71640;BMP280;60912;48.968;10.124;2023-01-30T00:19:46;97091.75;;;-1.10
71640;BMP280;60912;48.968;10.124;2023-01-30T00:22:11;97100.28;;;-1.11
71640;BMP280;60912;48.968;10.124;2023-01-30T00:24:36;97091.59;;;-1.15
71640;BMP280;60912;48.968;10.124;2023-01-30T00:27:02;97090.09;;;-1.16
71640;BMP280;60912;48.968;10.124;2023-01-30T00:29:27;97086.19;;;-1.15
71640;BMP280;60912;48.968;10.124;2023-01-30T00:31:52;97079.41;;;-1.11
71640;BMP280;60912;48.968;10.124;2023-01-30T00:34:18;97079.91;;;-1.03
71640;BMP280;60912;48.968;10.124;2023-01-30T00:36:43;97072.97;;;-1.04
71640;BMP280;60912;48.968;10.124;2023-01-30T00:39:08;97072.69;;;-0.97
71640;BMP280;60912;48.968;10.124;2023-01-30T00:41:34;97071.94;;;-0.88
71640;BMP280;60912;48.968;10.124;2023-01-30T00:44:18;97069.41;;;-0.83
71640;BMP280;60912;48.968;10.124;2023-01-30T00:47:02;97079.03;;;-0.82
71640;BMP280;60912;48.968;10.124;2023-01-30T00:49:30;97077.22;;;-0.94
71640;BMP280;60912;48.968;10.124;2023-01-30T00:51:57;97078.69;;;-1.02
71640;BMP280;60912;48.968;10.124;2023-01-30T00:54:22;97089.22;;;-1.04
71640;BMP280;60912;48.968;10.124;2023-01-30T00:56:47;97090.72;;;-1.03
71640;BMP280;60912;48.968;10.124;2023-01-30T00:59:13;97083.50;;;-1.06
71640;BMP280;60912;48.968;10.124;2023-01-30T01:01:38;97090.56;;;-0.99
71640;BMP280;60912;48.968;10.124;2023-01-30T01:04:04;97099.59;;;-0.93
71640;BMP280;60912;48.968;10.124;2023-01-30T01:06:30;97106.97;;;-0.85
71640;BMP280;60912;48.968;10.124;2023-01-30T01:08:56;97108.22;;;-0.77
71640;BMP280;60912;48.968;10.124;2023-01-30T01:11:21;97130.00;;;-0.71
71640;BMP280;60912;48.968;10.124;2023-01-30T01:13:53;97135.59;;;-0.65
71640;BMP280;60912;48.968;10.124;2023-01-30T01:16:20;97132.72;;;-0.62
71640;BMP280;60912;48.968;10.124;2023-01-30T01:18:46;97135.88;;;-0.73
71640;BMP280;60912;48.968;10.124;2023-01-30T01:21:11;97136.72;;;-0.94
71640;BMP280;60912;48.968;10.124;2023-01-30T01:23:37;97133.38;;;-1.07
71640;BMP280;60912;48.968;10.124;2023-01-30T01:26:03;97130.34;;;-1.09
71640;BMP280;60912;48.968;10.124;2023-01-30T01:28:29;97141.63;;;-1.11
71640;BMP280;60912;48.968;10.124;2023-01-30T01:30:54;97135.19;;;-1.04
71640;BMP280;60912;48.968;10.124;2023-01-30T01:33:20;97133.09;;;-1.00
71640;BMP280;60912;48.968;10.124;2023-01-30T01:35:45;97135.34;;;-0.98
71640;BMP280;60912;48.968;10.124;2023-01-30T01:38:13;97126.78;;;-0.97
71640;BMP280;60912;48.968;10.124;2023-01-30T01:40:39;97134.00;;;-0.94
71640;BMP280;60912;48.968;10.124;2023-01-30T01:43:23;97136.44;;;-0.87
71640;BMP280;60912;48.968;10.124;2023-01-30T01:46:19;97142.47;;;-0.83
71640;BMP280;60912;48.968;10.124;2023-01-30T01:48:57;97142.31;;;-0.79
71640;BMP280;60912;48.968;10.124;2023-01-30T01:51:54;97129.25;;;-0.81
71640;BMP280;60912;48.968;10.124;2023-01-30T01:54:29;97123.81;;;-0.81
71640;BMP280;60912;48.968;10.124;2023-01-30T01:57:02;97116.59;;;-0.75
71640;BMP280;60912;48.968;10.124;2023-01-30T01:59:35;97136.34;;;-0.65
71640;BMP280;60912;48.968;10.124;2023-01-30T02:02:06;97134.22;;;-0.61
71640;BMP280;60912;48.968;10.124;2023-01-30T02:04:33;97124.91;;;-0.69
71640;BMP280;60912;48.968;10.124;2023-01-30T02:07:20;97116.66;;;-0.65
71640;BMP280;60912;48.968;10.124;2023-01-30T02:09:46;97104.56;;;-0.83
71640;BMP280;60912;48.968;10.124;2023-01-30T02:12:13;97123.53;;;-0.74
71640;BMP280;60912;48.968;10.124;2023-01-30T02:14:40;97130.75;;;-0.61
71640;BMP280;60912;48.968;10.124;2023-01-30T02:17:05;97106.88;;;-0.54
71640;BMP280;60912;48.968;10.124;2023-01-30T02:36:19;97089.75;;;-0.42
71640;BMP280;60912;48.968;10.124;2023-01-30T02:39:07;97066.88;;;-0.68
71640;BMP280;60912;48.968;10.124;2023-01-30T02:44:49;97040.56;;;-0.58
71640;BMP280;60912;48.968;10.124;2023-01-30T02:47:22;97035.75;;;-0.54
71640;BMP280;60912;48.968;10.124;2023-01-30T02:49:57;97042.50;;;-0.41
71640;BMP280;60912;48.968;10.124;2023-01-30T02:52:27;97054.09;;;-0.40
71640;BMP280;60912;48.968;10.124;2023-01-30T02:54:53;97033.94;;;-0.39
71640;BMP280;60912;48.968;10.124;2023-01-30T02:57:21;97029.72;;;-0.31
71640;BMP280;60912;48.968;10.124;2023-01-30T02:59:51;97036.22;;;-0.28
71640;BMP280;60912;48.968;10.124;2023-01-30T03:10:37;97039.94;;;-0.17
71640;BMP280;60912;48.968;10.124;2023-01-30T03:15:41;97026.41;;;-0.44
71640;BMP280;60912;48.968;10.124;2023-01-30T03:18:09;97038.75;;;-0.43
71640;BMP280;60912;48.968;10.124;2023-01-30T03:20:36;97022.81;;;-0.59
71640;BMP280;60912;48.968;10.124;2023-01-30T03:23:02;97014.97;;;-0.48
71640;BMP280;60912;48.968;10.124;2023-01-30T03:25:27;97004.16;;;-0.48
71640;BMP280;60912;48.968;10.124;2023-01-30T03:27:54;96994.81;;;-0.47
71640;BMP280;60912;48.968;10.124;2023-01-30T03:30:20;96990.00;;;-0.43
71640;BMP280;60912;48.968;10.124;2023-01-30T03:32:45;96982.03;;;-0.28
71640;BMP280;60912;48.968;10.124;2023-01-30T03:35:11;96962.75;;;-0.21
71640;BMP280;60912;48.968;10.124;2023-01-30T03:37:37;96938.41;;;-0.30
71640;BMP280;60912;48.968;10.124;2023-01-30T03:40:03;96917.97;;;-0.41
71640;BMP280;60912;48.968;10.124;2023-01-30T03:42:29;96927.44;;;-0.45
71640;BMP280;60912;48.968;10.124;2023-01-30T03:44:55;96924.78;;;-0.63
71640;BMP280;60912;48.968;10.124;2023-01-30T03:47:20;96940.25;;;-0.55
71640;BMP280;60912;48.968;10.124;2023-01-30T03:49:45;96940.69;;;-0.56
71640;BMP280;60912;48.968;10.124;2023-01-30T03:52:11;96932.84;;;-0.45
71640;BMP280;60912;48.968;10.124;2023-01-30T03:54:36;96922.31;;;-0.43
71640;BMP280;60912;48.968;10.124;2023-01-30T03:57:01;96921.44;;;-0.40
71640;BMP280;60912;48.968;10.124;2023-01-30T03:59:27;96941.53;;;-0.23
71640;BMP280;60912;48.968;10.124;2023-01-30T04:01:52;96937.34;;;-0.24
71640;BMP280;60912;48.968;10.124;2023-01-30T04:04:17;96950.41;;;-0.13
71640;BMP280;60912;48.968;10.124;2023-01-30T04:06:43;96943.56;;;0.00
71640;BMP280;60912;48.968;10.124;2023-01-30T04:09:08;96931.38;;;0.05
71640;BMP280;60912;48.968;10.124;2023-01-30T04:11:33;96931.81;;;0.04
71640;BMP280;60912;48.968;10.124;2023-01-30T04:13:59;96930.81;;;-0.08
71640;BMP280;60912;48.968;10.124;2023-01-30T04:16:26;96925.47;;;-0.36
71640;BMP280;60912;48.968;10.124;2023-01-30T04:18:51;96924.88;;;-0.30
71640;BMP280;60912;48.968;10.124;2023-01-30T04:21:17;96938.81;;;-0.14
71640;BMP280;60912;48.968;10.124;2023-01-30T04:23:43;96934.97;;;0.02
71640;BMP280;60912;48.968;10.124;2023-01-30T04:26:08;96933.16;;;0.08
71640;BMP280;60912;48.968;10.124;2023-01-30T04:28:35;96936.78;;;0.05
71640;BMP280;60912;48.968;10.124;2023-01-30T04:31:01;96946.56;;;0.03
71640;BMP280;60912;48.968;10.124;2023-01-30T04:33:27;96951.97;;;0.12
71640;BMP280;60912;48.968;10.124;2023-01-30T04:35:52;96937.16;;;0.22
71640;BMP280;60912;48.968;10.124;2023-01-30T04:38:19;96925.28;;;0.19
71640;BMP280;60912;48.968;10.124;2023-01-30T04:40:48;96929.47;;;-0.04
71640;BMP280;60912;48.968;10.124;2023-01-30T04:43:14;96919.81;;;-0.05
71640;BMP280;60912;48.968;10.124;2023-01-30T04:45:44;96922.28;;;-0.16
71640;BMP280;60912;48.968;10.124;2023-01-30T04:48:10;96919.88;;;-0.14
71640;BMP280;60912;48.968;10.124;2023-01-30T04:50:36;96930.03;;;0.00
71640;BMP280;60912;48.968;10.124;2023-01-30T04:53:02;96920.94;;;0.13
71640;BMP280;60912;48.968;10.124;2023-01-30T04:55:27;96916.84;;;0.17
71640;BMP280;60912;48.968;10.124;2023-01-30T04:57:52;96911.13;;;0.15
71640;BMP280;60912;48.968;10.124;2023-01-30T05:00:18;96914.34;;;0.05
71640;BMP280;60912;48.968;10.124;2023-01-30T05:02:43;96925.34;;;0.01
71640;BMP280;60912;48.968;10.124;2023-01-30T05:05:09;96922.63;;;0.10
71640;BMP280;60912;48.968;10.124;2023-01-30T05:07:34;96929.91;;;0.28
71640;BMP280;60912;48.968;10.124;2023-01-30T05:09:59;96931.22;;;0.32
71640;BMP280;60912;48.968;10.124;2023-01-30T05:12:27;96932.56;;;0.37
71640;BMP280;60912;48.968;10.124;2023-01-30T05:14:53;96939.94;;;0.36
71640;BMP280;60912;48.968;10.124;2023-01-30T05:17:18;96933.06;;;0.50
71640;BMP280;60912;48.968;10.124;2023-01-30T05:19:43;96923.97;;;0.62
71640;BMP280;60912;48.968;10.124;2023-01-30T05:22:09;96918.81;;;0.64
71640;BMP280;60912;48.968;10.124;2023-01-30T05:24:34;96922.09;;;0.68
71640;BMP280;60912;48.968;10.124;2023-01-30T05:27:01;96924.00;;;0.77
71640;BMP280;60912;48.968;10.124;2023-01-30T05:29:26;96914.47;;;0.82
71640;BMP280;60912;48.968;10.124;2023-01-30T05:31:51;96910.84;;;0.85
71640;BMP280;60912;48.968;10.124;2023-01-30T05:34:17;96906.84;;;0.95
71640;BMP280;60912;48.968;10.124;2023-01-30T05:36:42;96916.69;;;0.68
71640;BMP280;60912;48.968;10.124;2023-01-30T05:39:07;96920.97;;;0.60
71640;BMP280;60912;48.968;10.124;2023-01-30T05:41:33;96917.19;;;0.58
71640;BMP280;60912;48.968;10.124;2023-01-30T05:43:58;96915.81;;;0.62
71640;BMP280;60912;48.968;10.124;2023-01-30T05:46:23;96917.03;;;0.61
71640;BMP280;60912;48.968;10.124;2023-01-30T05:48:49;96916.38;;;0.66
71640;BMP280;60912;48.968;10.124;2023-01-30T05:51:16;96922.97;;;0.75
71640;BMP280;60912;48.968;10.124;2023-01-30T05:53:42;96919.56;;;0.65
71640;BMP280;60912;48.968;10.124;2023-01-30T05:56:08;96909.81;;;0.34
71640;BMP280;60912;48.968;10.124;2023-01-30T05:58:33;96898.41;;;0.30
71640;BMP280;60912;48.968;10.124;2023-01-30T06:01:03;96894.88;;;0.39
71640;BMP280;60912;48.968;10.124;2023-01-30T06:03:29;96895.44;;;0.43
71640;BMP280;60912;48.968;10.124;2023-01-30T06:05:54;96883.88;;;0.19
71640;BMP280;60912;48.968;10.124;2023-01-30T06:08:20;96883.28;;;0.15
71640;BMP280;60912;48.968;10.124;2023-01-30T06:10:45;96883.44;;;0.20
71640;BMP280;60912;48.968;10.124;2023-01-30T06:13:11;96883.75;;;0.37
71640;BMP280;60912;48.968;10.124;2023-01-30T06:15:37;96877.22;;;0.44
71640;BMP280;60912;48.968;10.124;2023-01-30T06:18:03;96881.78;;;0.61
71640;BMP280;60912;48.968;10.124;2023-01-30T06:20:28;96881.94;;;0.58
71640;BMP280;60912;48.968;10.124;2023-01-30T06:22:53;96882.47;;;0.47
71640;BMP280;60912;48.968;10.124;2023-01-30T06:25:19;96887.03;;;0.41
71640;BMP280;60912;48.968;10.124;2023-01-30T06:27:45;96884.97;;;0.36
71640;BMP280;60912;48.968;10.124;2023-01-30T06:30:11;96887.28;;;0.28
71640;BMP280;60912;48.968;10.124;2023-01-30T06:32:36;96895.94;;;0.18
71640;BMP280;60912;48.968;10.124;2023-01-30T06:35:02;96893.97;;;0.18
71640;BMP280;60912;48.968;10.124;2023-01-30T06:37:27;96906.59;;;0.21
71640;BMP280;60912;48.968;10.124;2023-01-30T06:39:53;96907.69;;;0.15
71640;BMP280;60912;48.968;10.124;2023-01-30T06:42:18;96903.19;;;0.12
71640;BMP280;60912;48.968;10.124;2023-01-30T06:44:43;96899.59;;;0.06
71640;BMP280;60912;48.968;10.124;2023-01-30T06:47:09;96892.59;;;0.23
71640;BMP280;60912;48.968;10.124;2023-01-30T06:49:34;96884.31;;;0.41
71640;BMP280;60912;48.968;10.124;2023-01-30T06:52:00;96886.03;;;0.53
71640;BMP280;60912;48.968;10.124;2023-01-30T06:54:25;96891.16;;;0.51
71640;BMP280;60912;48.968;10.124;2023-01-30T06:56:51;96894.22;;;0.68
71640;BMP280;60912;48.968;10.124;2023-01-30T06:59:16;96888.56;;;0.81
71640;BMP280;60912;48.968;10.124;2023-01-30T07:01:41;96881.13;;;0.66
71640;BMP280;60912;48.968;10.124;2023-01-30T07:04:07;96881.63;;;0.80
71640;BMP280;60912;48.968;10.124;2023-01-30T07:06:32;96882.50;;;0.86
71640;BMP280;60912;48.968;10.124;2023-01-30T07:08:58;96876.78;;;0.84
71640;BMP280;60912;48.968;10.124;2023-01-30T07:11:24;96884.63;;;0.82
71640;BMP280;60912;48.968;10.124;2023-01-30T07:13:49;96886.72;;;0.87
71640;BMP280;60912;48.968;10.124;2023-01-30T07:16:15;96891.84;;;0.85
71640;BMP280;60912;48.968;10.124;2023-01-30T07:18:40;96890.47;;;0.65
71640;BMP280;60912;48.968;10.124;2023-01-30T07:21:06;96899.94;;;0.70
71640;BMP280;60912;48.968;10.124;2023-01-30T07:23:31;96894.84;;;0.87
71640;BMP280;60912;48.968;10.124;2023-01-30T07:25:56;96893.16;;;0.89
71640;BMP280;60912;48.968;10.124;2023-01-30T07:28:22;96890.97;;;0.79
71640;BMP280;60912;48.968;10.124;2023-01-30T07:30:47;96884.50;;;0.76
71640;BMP280;60912;48.968;10.124;2023-01-30T07:33:17;96883.13;;;0.81
71640;BMP280;60912;48.968;10.124;2023-01-30T07:35:42;96883.53;;;0.88
71640;BMP280;60912;48.968;10.124;2023-01-30T07:38:08;96896.34;;;1.02
71640;BMP280;60912;48.968;10.124;2023-01-30T07:40:33;96898.59;;;1.04
71640;BMP280;60912;48.968;10.124;2023-01-30T07:43:04;96902.06;;;1.04
71640;BMP280;60912;48.968;10.124;2023-01-30T07:45:34;96899.56;;;1.16
71640;BMP280;60912;48.968;10.124;2023-01-30T07:48:01;96898.06;;;1.29
71640;BMP280;60912;48.968;10.124;2023-01-30T07:50:26;96902.28;;;1.45
71640;BMP280;60912;48.968;10.124;2023-01-30T07:52:51;96895.16;;;1.48
71640;BMP280;60912;48.968;10.124;2023-01-30T07:55:17;96890.38;;;1.42
71640;BMP280;60912;48.968;10.124;2023-01-30T07:57:42;96896.94;;;1.21
71640;BMP280;60912;48.968;10.124;2023-01-30T08:00:08;96900.69;;;1.09
71640;BMP280;60912;48.968;10.124;2023-01-30T08:02:35;96899.47;;;1.10
71640;BMP280;60912;48.968;10.124;2023-01-30T08:05:00;96885.91;;;1.10
71640;BMP280;60912;48.968;10.124;2023-01-30T08:07:26;96876.16;;;1.18
71640;BMP280;60912;48.968;10.124;2023-01-30T08:09:51;96892.34;;;1.27
71640;BMP280;60912;48.968;10.124;2023-01-30T08:12:17;96870.19;;;1.29
71640;BMP280;60912;48.968;10.124;2023-01-30T08:14:42;96871.31;;;1.22
71640;BMP280;60912;48.968;10.124;2023-01-30T08:17:07;96864.38;;;1.06
71640;BMP280;60912;48.968;10.124;2023-01-30T08:19:33;96894.88;;;1.16
71640;BMP280;60912;48.968;10.124;2023-01-30T08:21:58;96884.03;;;1.31
71640;BMP280;60912;48.968;10.124;2023-01-30T08:24:24;96883.72;;;1.43
71640;BMP280;60912;48.968;10.124;2023-01-30T08:26:49;96855.34;;;1.59
71640;BMP280;60912;48.968;10.124;2023-01-30T08:29:15;96843.72;;;1.59
71640;BMP280;60912;48.968;10.124;2023-01-30T08:31:40;96848.97;;;1.62
71640;BMP280;60912;48.968;10.124;2023-01-30T08:34:05;96838.41;;;1.50
71640;BMP280;60912;48.968;10.124;2023-01-30T08:36:31;96837.66;;;1.64
71640;BMP280;60912;48.968;10.124;2023-01-30T08:38:56;96844.28;;;1.63
71640;BMP280;60912;48.968;10.124;2023-01-30T08:41:22;96840.38;;;1.64
71640;BMP280;60912;48.968;10.124;2023-01-30T08:43:47;96847.59;;;1.87
71640;BMP280;60912;48.968;10.124;2023-01-30T08:46:13;96848.28;;;1.82
71640;BMP280;60912;48.968;10.124;2023-01-30T08:48:41;96844.47;;;1.94
71640;BMP280;60912;48.968;10.124;2023-01-30T08:51:09;96830.94;;;1.79
71640;BMP280;60912;48.968;10.124;2023-01-30T08:53:36;96842.88;;;2.02
71640;BMP280;60912;48.968;10.124;2023-01-30T08:56:01;96839.00;;;2.09
71640;BMP280;60912;48.968;10.124;2023-01-30T08:58:27;96822.97;;;2.11
71640;BMP280;60912;48.968;10.124;2023-01-30T09:00:52;96821.41;;;2.25
71640;BMP280;60912;48.968;10.124;2023-01-30T09:03:18;96809.44;;;2.16
71640;BMP280;60912;48.968;10.124;2023-01-30T09:05:44;96799.66;;;2.25
71640;BMP280;60912;48.968;10.124;2023-01-30T09:08:10;96797.97;;;2.27
71640;BMP280;60912;48.968;10.124;2023-01-30T09:10:35;96811.69;;;2.18
71640;BMP280;60912;48.968;10.124;2023-01-30T09:13:01;96806.38;;;2.09
71640;BMP280;60912;48.968;10.124;2023-01-30T09:15:26;96803.28;;;2.42
71640;BMP280;60912;48.968;10.124;2023-01-30T09:17:52;96803.91;;;2.51
71640;BMP280;60912;48.968;10.124;2023-01-30T09:20:17;96800.44;;;2.51
71640;BMP280;60912;48.968;10.124;2023-01-30T09:22:45;96795.53;;;2.35
71640;BMP280;60912;48.968;10.124;2023-01-30T09:25:10;96798.94;;;2.30
71640;BMP280;60912;48.968;10.124;2023-01-30T09:27:35;96805.91;;;2.10
71640;BMP280;60912;48.968;10.124;2023-01-30T09:30:02;96810.41;;;2.13
71640;BMP280;60912;48.968;10.124;2023-01-30T09:32:27;96830.22;;;2.40
71640;BMP280;60912;48.968;10.124;2023-01-30T09:34:52;96812.13;;;2.37
71640;BMP280;60912;48.968;10.124;2023-01-30T09:37:18;96812.53;;;2.30
71640;BMP280;60912;48.968;10.124;2023-01-30T09:39:43;96807.81;;;2.25
71640;BMP280;60912;48.968;10.124;2023-01-30T09:42:24;96809.50;;;2.02
71640;BMP280;60912;48.968;10.124;2023-01-30T09:50:28;96789.31;;;1.88
71640;BMP280;60912;48.968;10.124;2023-01-30T09:53:12;96782.38;;;1.87
71640;BMP280;60912;48.968;10.124;2023-01-30T09:55:39;96785.38;;;1.89
71640;BMP280;60912;48.968;10.124;2023-01-30T09:58:16;96780.75;;;1.95
71640;BMP280;60912;48.968;10.124;2023-01-30T10:00:42;96783.13;;;2.08
71640;BMP280;60912;48.968;10.124;2023-01-30T10:03:30;96788.19;;;2.15
71640;BMP280;60912;48.968;10.124;2023-01-30T10:06:03;96790.94;;;2.20
71640;BMP280;60912;48.968;10.124;2023-01-30T10:21:58;96799.47;;;2.54
71640;BMP280;60912;48.968;10.124;2023-01-30T10:26:54;96794.75;;;2.29
71640;BMP280;60912;48.968;10.124;2023-01-30T10:29:25;96794.03;;;2.34
71640;BMP280;60912;48.968;10.124;2023-01-30T10:32:03;96799.25;;;2.57
71640;BMP280;60912;48.968;10.124;2023-01-30T10:34:35;96784.31;;;2.73
71640;BMP280;60912;48.968;10.124;2023-01-30T10:39:36;96785.47;;;2.67
71640;BMP280;60912;48.968;10.124;2023-01-30T10:42:08;96771.19;;;2.72
71640;BMP280;60912;48.968;10.124;2023-01-30T10:44:34;96769.13;;;2.61
71640;BMP280;60912;48.968;10.124;2023-01-30T10:49:44;96770.53;;;2.82
71640;BMP280;60912;48.968;10.124;2023-01-30T11:00:28;96761.38;;;2.54
71640;BMP280;60912;48.968;10.124;2023-01-30T11:03:34;96761.03;;;2.20
71640;BMP280;60912;48.968;10.124;2023-01-30T11:06:00;96757.00;;;2.36
71640;BMP280;60912;48.968;10.124;2023-01-30T11:08:31;96758.06;;;2.44
71640;BMP280;60912;48.968;10.124;2023-01-30T11:10:57;96742.19;;;2.63
71640;BMP280;60912;48.968;10.124;2023-01-30T11:13:28;96752.06;;;2.66
71640;BMP280;60912;48.968;10.124;2023-01-30T11:15:57;96740.22;;;2.69
71640;BMP280;60912;48.968;10.124;2023-01-30T11:18:24;96738.97;;;2.90
71640;BMP280;60912;48.968;10.124;2023-01-30T11:23:29;96732.03;;;2.89
71640;BMP280;60912;48.968;10.124;2023-01-30T11:25:56;96719.97;;;3.02
71640;BMP280;60912;48.968;10.124;2023-01-30T11:28:23;96723.13;;;2.94
71640;BMP280;60912;48.968;10.124;2023-01-30T11:30:59;96735.28;;;2.99
71640;BMP280;60912;48.968;10.124;2023-01-30T11:33:36;96738.09;;;3.10
71640;BMP280;60912;48.968;10.124;2023-01-30T11:36:06;96723.94;;;3.06
71640;BMP280;60912;48.968;10.124;2023-01-30T11:38:34;96713.72;;;2.95
71640;BMP280;60912;48.968;10.124;2023-01-30T11:43:35;96705.72;;;3.18
71640;BMP280;60912;48.968;10.124;2023-01-30T11:46:05;96710.16;;;3.63
71640;BMP280;60912;48.968;10.124;2023-01-30T11:48:33;96711.06;;;3.44
71640;BMP280;60912;48.968;10.124;2023-01-30T11:51:04;96703.66;;;3.55
71640;BMP280;60912;48.968;10.124;2023-01-30T11:58:46;96691.09;;;3.69
71640;BMP280;60912;48.968;10.124;2023-01-30T12:01:15;96698.47;;;3.57
71640;BMP280;60912;48.968;10.124;2023-01-30T12:03:49;96688.59;;;3.60
71640;BMP280;60912;48.968;10.124;2023-01-30T12:06:31;96679.09;;;3.39
71640;BMP280;60912;48.968;10.124;2023-01-30T12:08:57;96678.78;;;3.31
71640;BMP280;60912;48.968;10.124;2023-01-30T12:13:53;96680.56;;;3.34
71640;BMP280;60912;48.968;10.124;2023-01-30T12:24:47;96683.06;;;3.43
71640;BMP280;60912;48.968;10.124;2023-01-30T12:27:21;96698.13;;;3.33
71640;BMP280;60912;48.968;10.124;2023-01-30T12:30:03;96713.06;;;3.49
71640;BMP280;60912;48.968;10.124;2023-01-30T12:32:32;96704.84;;;3.38
71640;BMP280;60912;48.968;10.124;2023-01-30T12:34:58;96696.38;;;3.30
71640;BMP280;60912;48.968;10.124;2023-01-30T12:42:38;96714.53;;;3.44
71640;BMP280;60912;48.968;10.124;2023-01-30T12:51:04;96700.38;;;3.34
71640;BMP280;60912;48.968;10.124;2023-01-30T12:53:42;96711.72;;;3.27
71640;BMP280;60912;48.968;10.124;2023-01-30T13:04:33;96724.41;;;3.36
71640;BMP280;60912;48.968;10.124;2023-01-30T13:18:39;96740.09;;;3.52
71640;BMP280;60912;48.968;10.124;2023-01-30T13:21:20;96733.91;;;3.57
71640;BMP280;60912;48.968;10.124;2023-01-30T13:23:51;96747.03;;;3.59
71640;BMP280;60912;48.968;10.124;2023-01-30T13:26:28;96754.78;;;3.66
71640;BMP280;60912;48.968;10.124;2023-01-30T13:28:59;96752.56;;;3.70
71640;BMP280;60912;48.968;10.124;2023-01-30T13:31:30;96761.22;;;3.68
71640;BMP280;60912;48.968;10.124;2023-01-30T13:34:16;96756.69;;;3.54
71640;BMP280;60912;48.968;10.124;2023-01-30T13:36:59;96754.66;;;3.49
71640;BMP280;60912;48.968;10.124;2023-01-30T13:39:39;96755.19;;;3.53
71640;BMP280;60912;48.968;10.124;2023-01-30T13:42:35;96767.66;;;3.65
71640;BMP280;60912;48.968;10.124;2023-01-30T13:44:58;96747.25;;;3.55
71640;BMP280;60912;48.968;10.124;2023-01-30T13:53:00;96752.81;;;3.66
71640;BMP280;60912;48.968;10.124;2023-01-30T13:55:37;96764.47;;;3.72
71640;BMP280;60912;48.968;10.124;2023-01-30T14:00:55;96773.97;;;3.94
71640;BMP280;60912;48.968;10.124;2023-01-30T14:08:18;96780.59;;;3.82
71640;BMP280;60912;48.968;10.124;2023-01-30T14:10:44;96787.75;;;3.73
71640;BMP280;60912;48.968;10.124;2023-01-30T14:13:12;96790.47;;;3.73
71640;BMP280;60912;48.968;10.124;2023-01-30T14:15:50;96789.69;;;3.62
71640;BMP280;60912;48.968;10.124;2023-01-30T14:18:37;96779.47;;;3.51
71640;BMP280;60912;48.968;10.124;2023-01-30T14:21:20;96789.59;;;3.51
71640;BMP280;60912;48.968;10.124;2023-01-30T14:24:03;96792.19;;;3.65
71640;BMP280;60912;48.968;10.124;2023-01-30T14:46:38;96815.09;;;3.96
71640;BMP280;60912;48.968;10.124;2023-01-30T14:51:23;96816.56;;;3.86
71640;BMP280;60912;48.968;10.124;2023-01-30T14:57:01;96818.84;;;3.98
71640;BMP280;60912;48.968;10.124;2023-01-30T14:59:29;96825.03;;;3.93
71640;BMP280;60912;48.968;10.124;2023-01-30T15:04:21;96829.81;;;3.61
71640;BMP280;60912;48.968;10.124;2023-01-30T15:06:48;96833.06;;;3.65
71640;BMP280;60912;48.968;10.124;2023-01-30T15:09:23;96840.53;;;3.70
71640;BMP280;60912;48.968;10.124;2023-01-30T15:12:01;96853.44;;;3.81
71640;BMP280;60912;48.968;10.124;2023-01-30T15:14:57;96852.19;;;3.77
71640;BMP280;60912;48.968;10.124;2023-01-30T15:17:33;96846.94;;;3.67
71640;BMP280;60912;48.968;10.124;2023-01-30T15:28:35;96845.47;;;3.66
71640;BMP280;60912;48.968;10.124;2023-01-30T15:31:27;96867.53;;;3.74
71640;BMP280;60912;48.968;10.124;2023-01-30T15:33:54;96863.38;;;3.79
71640;BMP280;60912;48.968;10.124;2023-01-30T15:36:34;96869.72;;;3.64
71640;BMP280;60912;48.968;10.124;2023-01-30T15:39:02;96868.34;;;3.49
71640;BMP280;60912;48.968;10.124;2023-01-30T15:41:30;96879.72;;;3.42
71640;BMP280;60912;48.968;10.124;2023-01-30T15:44:21;96878.78;;;3.50
71640;BMP280;60912;48.968;10.124;2023-01-30T15:47:12;96892.31;;;3.39
71640;BMP280;60912;48.968;10.124;2023-01-30T15:50:01;96886.91;;;3.45
71640;BMP280;60912;48.968;10.124;2023-01-30T15:52:36;96881.72;;;3.47
71640;BMP280;60912;48.968;10.124;2023-01-30T15:55:05;96895.72;;;3.34
71640;BMP280;60912;48.968;10.124;2023-01-30T15:57:34;96895.94;;;3.30
71640;BMP280;60912;48.968;10.124;2023-01-30T16:00:03;96895.00;;;3.08
71640;BMP280;60912;48.968;10.124;2023-01-30T16:02:34;96901.94;;;3.09
71640;BMP280;60912;48.968;10.124;2023-01-30T16:05:16;96908.34;;;3.06
71640;BMP280;60912;48.968;10.124;2023-01-30T16:07:47;96885.50;;;2.97
71640;BMP280;60912;48.968;10.124;2023-01-30T16:10:27;96905.56;;;3.00
71640;BMP280;60912;48.968;10.124;2023-01-30T16:12:55;96924.69;;;3.06
71640;BMP280;60912;48.968;10.124;2023-01-30T16:18:19;96927.16;;;3.04
71640;BMP280;60912;48.968;10.124;2023-01-30T16:26:17;96943.34;;;3.13
71640;BMP280;60912;48.968;10.124;2023-01-30T16:28:47;96940.59;;;3.13
71640;BMP280;60912;48.968;10.124;2023-01-30T16:31:14;96942.22;;;3.05
71640;BMP280;60912;48.968;10.124;2023-01-30T16:33:39;96958.31;;;3.03
71640;BMP280;60912;48.968;10.124;2023-01-30T16:38:54;96977.16;;;3.06
71640;BMP280;60912;48.968;10.124;2023-01-30T16:44:23;96962.91;;;2.91
71640;BMP280;60912;48.968;10.124;2023-01-30T16:46:58;96971.66;;;3.01
71640;BMP280;60912;48.968;10.124;2023-01-30T16:54:48;96984.31;;;3.04
71640;BMP280;60912;48.968;10.124;2023-01-30T16:57:36;96991.50;;;3.07
71640;BMP280;60912;48.968;10.124;2023-01-30T17:00:22;96993.84;;;3.14
71640;BMP280;60912;48.968;10.124;2023-01-30T17:02:51;96999.50;;;3.10
71640;BMP280;60912;48.968;10.124;2023-01-30T17:05:19;97010.47;;;3.16
71640;BMP280;60912;48.968;10.124;2023-01-30T17:07:46;97015.09;;;3.10
71640;BMP280;60912;48.968;10.124;2023-01-30T17:13:03;97029.63;;;3.07
71640;BMP280;60912;48.968;10.124;2023-01-30T17:15:31;97024.75;;;3.11
71640;BMP280;60912;48.968;10.124;2023-01-30T17:17:56;97026.44;;;3.08
71640;BMP280;60912;48.968;10.124;2023-01-30T17:20:23;97017.09;;;2.94
71640;BMP280;60912;48.968;10.124;2023-01-30T17:22:51;97000.75;;;2.89
71640;BMP280;60912;48.968;10.124;2023-01-30T17:25:29;96995.22;;;2.83